Escribe el Código OACI del Aeropuerto

Buscar por Aeropuerto o Ciudad

Información Meteorológica Actual

SCTE | El Tepual Airport

Puerto Montt, Chile

Última Actualización Hace 13 Minutos

Cielo Completamente Nublado

15 ºC de Temperatura

Vientos Leves a Moderados del Sur

Temperatura

15 ºC

Temperatura del Punto de Rocío

13 ºC

Humedad Relativa

87.89 %

Dirección del Viento

Sur (200º, Variando entre 170º y 230º)

Velocidad del Viento

15 km/h (08 kt)

Ráfagas

No Hay

Visibilidad

Mayor a 10 kilómetros

Presión Reducida a Nivel del Mar

1017 hPa (Hectopascales)

Capas de Nubes

60% a 90% de Cielo Cubierto con Base a 305 mts (1000 ft) de Altura.

90% a 100% de Cielo Cubierto con Base a 1067 mts (3500 ft) de Altura.

METAR SCTE 071600Z 20008KT 170V230 9999 BKN010 OVC035 15/13 Q1017 NOSIG

Pronóstico Meteorológico

SCTE | El Tepual Airport

Puerto Montt, Chile

Pronóstico válido para las próximas 20 Horas

En las próximas 2 horas se espera el comienzo de:

Cielo Mayormente Nublado

Vientos Moderados del SurOeste

En 9 a 11 horas se espera el comienzo de:

Cielo con Nubes Dispersas

Vientos Leves de Direcciones Variables

En 12 a 14 horas se espera el comienzo de:

Neblina

Temperatura Máxima

20 ºC en 3 Horas

Temperatura Mínima

12 ºC en -4 Horas

TAF SCTE 071010Z 0712/0812 02005KT 9999 FEW005 BKN100 TN12/0712Z TX20/0719Z PROB40 TEMPO 0712/0715 5000 TSSHRA SCT030CB BKN100 BECMG 0716/0718 23010KT BKN020 BECMG 0801/0803 VRB03KT FEW030 BECMG 0804/0806 3000 BR FEW003 SCT010